createdAt,value
2019-04-25T00:03:12.619Z,11.72
2019-04-25T00:08:18.675Z,11.73
2019-04-25T00:13:24.172Z,11.61
2019-04-25T00:18:29.395Z,11.44
2019-04-25T00:23:35.551Z,11.32
2019-04-25T00:28:43.514Z,11.22
2019-04-25T00:33:47.957Z,11.06
2019-04-25T00:38:53.349Z,11.08
2019-04-25T00:43:58.624Z,11.10
2019-04-25T00:49:04.413Z,11.04
2019-04-25T00:54:09.676Z,11.03
2019-04-25T00:59:22.341Z,11.08
2019-04-25T01:04:29.438Z,11.09
2019-04-25T01:09:35.070Z,11.06
2019-04-25T01:14:42.006Z,10.89
2019-04-25T01:19:47.350Z,10.84
2019-04-25T01:24:54.136Z,10.73
2019-04-25T01:30:00.471Z,10.69
2019-04-25T01:35:23.692Z,10.62
2019-04-25T01:40:57.650Z,10.55
2019-04-25T01:46:04.223Z,10.43
2019-04-25T01:51:09.919Z,10.17
2019-04-25T01:56:15.180Z,9.85
2019-04-25T02:01:21.003Z,9.88
2019-04-25T02:06:26.385Z,9.90
2019-04-25T02:11:54.723Z,9.86
2019-04-25T02:17:00.945Z,9.83
2019-04-25T02:22:06.198Z,9.61
2019-04-25T02:27:13.609Z,9.36
2019-04-25T02:32:18.898Z,9.45
2019-04-25T02:37:25.654Z,9.53
2019-04-25T02:42:31.131Z,9.59
2019-04-25T02:48:01.432Z,9.60
2019-04-25T02:53:14.108Z,9.60
2019-04-25T02:58:19.564Z,9.59
2019-04-25T03:03:24.795Z,9.54
2019-04-25T03:08:30.080Z,9.44
2019-04-25T03:13:35.308Z,9.38
2019-04-25T03:19:04.741Z,9.31
2019-04-25T03:24:12.962Z,9.24
2019-04-25T03:29:16.435Z,9.26
2019-04-25T03:34:25.094Z,9.27
2019-04-25T03:39:28.960Z,9.27
2019-04-25T03:44:35.024Z,9.25
2019-04-25T03:49:40.376Z,9.21
2019-04-25T03:54:45.549Z,9.17
2019-04-25T03:59:53.499Z,9.12
2019-04-25T04:05:00.083Z,9.03
2019-04-25T04:10:06.613Z,9.07
2019-04-25T04:15:14.384Z,9.01
2019-04-25T04:20:41.575Z,8.93
2019-04-25T04:25:46.901Z,8.87
2019-04-25T04:30:53.970Z,8.83
2019-04-25T04:35:59.471Z,8.81
2019-04-25T04:41:04.807Z,8.81
2019-04-25T04:46:10.241Z,8.81
2019-04-25T04:51:16.048Z,8.81
2019-04-25T04:56:23.955Z,8.76
2019-04-25T05:01:31.073Z,8.84
2019-04-25T05:06:53.802Z,8.89
2019-04-25T05:11:59.203Z,8.91
2019-04-25T05:17:04.433Z,8.94
2019-04-25T05:22:09.733Z,9.03
2019-04-25T05:27:31.250Z,9.15
2019-04-25T05:32:24.127Z,9.25
2019-04-25T05:37:29.199Z,9.39
2019-04-25T05:42:58.602Z,9.49
2019-04-25T05:48:05.972Z,9.63
2019-04-25T05:53:11.618Z,9.76
2019-04-25T05:58:16.993Z,9.93
2019-04-25T06:03:24.805Z,10.09
2019-04-25T06:08:31.371Z,10.26
2019-04-25T06:13:53.138Z,10.40
2019-04-25T06:19:16.305Z,10.56
2019-04-25T06:24:44.417Z,10.77
2019-04-25T06:29:59.187Z,10.93
2019-04-25T06:35:00.574Z,11.10
2019-04-25T06:40:07.616Z,11.41
2019-04-25T06:45:34.303Z,11.68
2019-04-25T06:50:41.218Z,11.88
2019-04-25T06:55:46.453Z,12.15
2019-04-25T07:01:00.041Z,12.43
2019-04-25T07:05:59.242Z,12.57
2019-04-25T07:11:04.617Z,12.73
2019-04-25T07:16:09.947Z,12.94
2019-04-25T07:21:15.302Z,13.11
2019-04-25T07:26:39.809Z,13.28
2019-04-25T07:31:53.844Z,13.43
2019-04-25T07:36:59.196Z,13.61
2019-04-25T07:42:04.445Z,13.70
2019-04-25T07:47:09.706Z,13.85
2019-04-25T07:52:15.241Z,14.12
2019-04-25T07:57:20.498Z,14.42
2019-04-25T08:02:25.986Z,14.51
2019-04-25T08:07:31.611Z,14.78
2019-04-25T08:12:37.608Z,15.19
2019-04-25T08:18:04.225Z,15.55
2019-04-25T08:23:09.461Z,15.85
2019-04-25T08:28:14.711Z,16.11
2019-04-25T08:33:19.967Z,16.37
2019-04-25T08:38:25.528Z,16.62
2019-04-25T08:43:30.979Z,16.82
2019-04-25T08:48:55.509Z,16.98
2019-04-25T08:54:07.615Z,17.28
2019-04-25T08:59:41.895Z,17.50
2019-04-25T09:04:59.918Z,17.63
2019-04-25T09:10:06.236Z,17.87
2019-04-25T09:15:11.946Z,18.08
2019-04-25T09:20:17.397Z,18.23
2019-04-25T09:25:23.828Z,18.40
2019-04-25T09:30:30.117Z,18.51
2019-04-25T09:35:36.260Z,18.60
2019-04-25T09:40:41.900Z,18.73
2019-04-25T09:46:06.318Z,18.93
2019-04-25T09:51:16.243Z,19.13
2019-04-25T09:56:29.076Z,19.25
2019-04-25T10:01:36.387Z,19.45
2019-04-25T10:06:43.479Z,19.60
2019-04-25T10:11:49.134Z,19.82
2019-04-25T10:16:55.407Z,19.88
2019-04-25T10:22:00.751Z,19.99
2019-04-25T10:27:06.129Z,20.11
2019-04-25T10:32:13.003Z,20.24
2019-04-25T10:37:18.716Z,20.33
2019-04-25T10:42:24.390Z,20.58
2019-04-25T10:47:30.218Z,20.66
2019-04-25T10:52:35.555Z,20.71
2019-04-25T10:57:40.811Z,20.83
2019-04-25T11:02:46.596Z,20.94
2019-04-25T11:07:55.704Z,21.18
2019-04-25T11:12:59.692Z,21.30
2019-04-25T11:18:06.762Z,21.39
2019-04-25T11:23:14.008Z,21.54
2019-04-25T11:28:19.339Z,21.72
2019-04-25T11:33:24.974Z,21.76
2019-04-25T11:38:47.370Z,21.95
2019-04-25T11:43:55.252Z,22.13
2019-04-25T11:49:00.754Z,22.36
2019-04-25T11:54:06.082Z,22.52
2019-04-25T11:59:11.745Z,22.69
2019-04-25T12:04:17.018Z,22.90
2019-04-25T12:09:23.954Z,22.97
2019-04-25T12:14:29.348Z,23.22
2019-04-25T12:19:37.884Z,23.32
2019-04-25T12:24:41.540Z,23.50
2019-04-25T12:29:46.805Z,23.67
2019-04-25T12:34:52.063Z,23.93
2019-04-25T12:39:57.404Z,24.16
2019-04-25T12:45:15.433Z,24.31
2019-04-25T12:50:20.668Z,24.55
2019-04-25T12:55:26.207Z,24.70
2019-04-25T13:00:31.660Z,24.99
2019-04-25T13:05:36.897Z,25.20
2019-04-25T13:10:44.305Z,25.50
2019-04-25T13:15:49.486Z,25.68
2019-04-25T13:20:56.074Z,25.91
2019-04-25T13:26:04.391Z,26.24
2019-04-25T13:31:33.184Z,26.53
2019-04-25T13:36:38.746Z,26.64
2019-04-25T13:41:44.801Z,26.90
2019-04-25T13:46:50.119Z,27.11
2019-04-25T13:51:55.357Z,27.27
2019-04-25T13:57:00.617Z,27.61
2019-04-25T14:02:07.116Z,27.83
2019-04-25T14:07:12.747Z,27.92
2019-04-25T14:12:17.992Z,28.25
2019-04-25T14:17:33.814Z,28.65
2019-04-25T14:22:39.365Z,28.65
2019-04-25T14:27:44.702Z,28.84
2019-04-25T14:32:50.229Z,28.97
2019-04-25T14:37:55.810Z,29.42
2019-04-25T14:43:01.061Z,29.43
2019-04-25T14:48:06.416Z,28.95
2019-04-25T14:53:11.969Z,28.60
2019-04-25T14:58:18.277Z,28.81
2019-04-25T15:03:24.085Z,29.45
2019-04-25T15:08:29.449Z,28.75
2019-04-25T15:13:35.267Z,28.71
2019-04-25T15:18:46.603Z,29.08
2019-04-25T15:23:59.335Z,28.50
2019-04-25T15:28:54.569Z,27.96
2019-04-25T15:34:02.390Z,27.88
2019-04-25T15:39:26.765Z,27.95
2019-04-25T15:45:00.278Z,27.33
2019-04-25T15:50:07.683Z,27.33
2019-04-25T15:55:13.049Z,26.88
2019-04-25T16:00:23.217Z,27.54
2019-04-25T16:05:29.962Z,27.92
2019-04-25T16:10:35.197Z,28.54
2019-04-25T16:15:41.465Z,28.82
2019-04-25T16:20:47.177Z,28.80
2019-04-25T16:25:52.502Z,28.55
2019-04-25T16:30:58.702Z,28.60
2019-04-25T16:36:03.959Z,28.32
2019-04-25T16:41:09.204Z,27.98
2019-04-25T16:46:15.241Z,27.75
2019-04-25T16:51:20.766Z,27.60
2019-04-25T16:56:26.368Z,27.25
2019-04-25T17:01:31.934Z,26.93
2019-04-25T17:06:38.038Z,26.55
2019-04-25T17:11:43.354Z,26.55
2019-04-25T17:17:00.809Z,26.25
2019-04-25T17:22:06.136Z,25.87
2019-04-25T17:27:11.778Z,25.67
2019-04-25T17:32:48.535Z,25.48
2019-04-25T17:38:03.814Z,25.09
2019-04-25T17:43:11.141Z,24.70
2019-04-25T17:48:16.288Z,24.46
2019-04-25T17:53:21.543Z,24.17
2019-04-25T17:58:26.788Z,23.85
2019-04-25T18:03:33.603Z,23.63
2019-04-25T18:08:39.592Z,23.36
2019-04-25T18:13:45.066Z,23.11
2019-04-25T18:19:06.513Z,22.66
2019-04-25T18:24:25.028Z,22.35
2019-04-25T18:29:31.857Z,21.85
2019-04-25T18:34:46.475Z,21.65
2019-04-25T18:39:58.762Z,21.34
2019-04-25T18:45:04.572Z,21.14
2019-04-25T18:50:13.600Z,20.94
2019-04-25T18:55:25.466Z,20.73
2019-04-25T19:00:47.871Z,20.55
2019-04-25T19:05:57.118Z,20.39
2019-04-25T19:11:02.866Z,20.13
2019-04-25T19:16:09.333Z,19.99
2019-04-25T19:21:14.680Z,19.85
2019-04-25T19:26:20.388Z,19.80
2019-04-25T19:31:25.759Z,19.71
2019-04-25T19:36:30.982Z,19.57
2019-04-25T19:41:43.113Z,19.45
2019-04-25T19:46:51.352Z,19.31
2019-04-25T19:51:58.226Z,19.16
2019-04-25T19:57:03.582Z,19.04
2019-04-25T20:02:15.651Z,18.92
2019-04-25T20:07:46.529Z,18.80
2019-04-25T20:12:53.402Z,18.74
2019-04-25T20:17:58.790Z,18.68
2019-04-25T20:23:04.055Z,18.65
2019-04-25T20:28:09.645Z,18.61
2019-04-25T20:33:14.921Z,18.61
2019-04-25T20:38:20.178Z,18.56
2019-04-25T20:43:25.421Z,18.52
2019-04-25T20:48:30.672Z,18.52
2019-04-25T20:53:36.373Z,18.45
2019-04-25T20:58:41.605Z,18.41
2019-04-25T21:03:48.608Z,18.32
2019-04-25T21:08:55.471Z,18.28
2019-04-25T21:14:19.050Z,18.18
2019-04-25T21:19:29.579Z,18.08
2019-04-25T21:24:35.118Z,17.96
2019-04-25T21:29:40.394Z,17.80
2019-04-25T21:34:45.636Z,17.73
2019-04-25T21:40:22.207Z,17.71
2019-04-25T21:45:28.029Z,17.69
2019-04-25T21:50:33.934Z,17.63
2019-04-25T21:55:40.210Z,17.55
2019-04-25T22:01:07.351Z,17.40
2019-04-25T22:06:14.225Z,17.27
2019-04-25T22:11:19.476Z,17.14
2019-04-25T22:16:25.090Z,17.02
2019-04-25T22:21:37.758Z,16.88
2019-04-25T22:26:38.014Z,16.79
2019-04-25T22:31:53.639Z,16.71
2019-04-25T22:36:59.903Z,16.56
2019-04-25T22:42:06.422Z,16.49
2019-04-25T22:47:12.584Z,16.42
2019-04-25T22:52:17.878Z,16.35
2019-04-25T22:57:23.123Z,16.38
2019-04-25T23:02:50.483Z,16.39
2019-04-25T23:07:55.987Z,16.47
2019-04-25T23:13:03.203Z,16.77
2019-04-25T23:18:09.364Z,16.74
2019-04-25T23:23:14.682Z,16.75
2019-04-25T23:28:21.646Z,16.73
2019-04-25T23:33:28.177Z,16.68
2019-04-25T23:38:34.005Z,16.61
2019-04-25T23:43:39.421Z,16.54
2019-04-25T23:48:44.670Z,16.40
2019-04-25T23:53:49.999Z,16.38
2019-04-25T23:58:55.256Z,16.37
